Time;durP1;ratioP1;P1;durP2;ratioP2;P2;SDS_P1;SDS_P2;PMS_P1;PMS_P2;Temp;Humidity;BMP_temperature;BMP_pressure;BME280_temperature;BME280_humidity;BME280_pressure;Samples;Min_cycle;Max_cycle;Signal;HPM_P1;HPM_P2
2022/03/30 00:01:35;;;;;;;32.63;16.87;;;8.40;99.90;;;;;;5059146;28;36387;-76
2022/03/30 00:04:01;;;;;;;41.60;17.47;;;8.30;99.90;;;;;;5055666;28;40524;-75
2022/03/30 00:06:27;;;;;;;37.00;17.40;;;8.40;99.90;;;;;;5059869;28;47879;-75
2022/03/30 00:08:53;;;;;;;31.37;15.57;;;8.30;99.90;;;;;;5061158;27;38819;-75
2022/03/30 00:11:20;;;;;;;34.53;16.83;;;8.30;99.90;;;;;;5060400;28;37587;-75
2022/03/30 00:13:46;;;;;;;34.87;18.10;;;8.30;99.90;;;;;;5071779;28;39224;-75
2022/03/30 00:16:12;;;;;;;34.23;17.53;;;8.30;99.90;;;;;;5058716;28;38523;-75
2022/03/30 00:18:38;;;;;;;33.47;16.83;;;8.30;99.90;;;;;;5053297;28;38636;-75
2022/03/30 00:21:05;;;;;;;32.80;17.53;;;8.30;99.90;;;;;;5063868;28;36220;-74
2022/03/30 00:23:31;;;;;;;38.00;17.63;;;8.30;99.90;;;;;;5062653;28;39257;-75
2022/03/30 00:25:57;;;;;;;36.93;18.10;;;8.20;99.90;;;;;;5057127;28;38509;-75
2022/03/30 00:28:27;;;;;;;44.73;17.87;;;8.20;99.90;;;;;;5059597;28;38122;-75
2022/03/30 00:30:54;;;;;;;35.33;17.43;;;8.10;99.90;;;;;;5054521;28;38006;-75
2022/03/30 00:33:20;;;;;;;33.93;18.17;;;8.10;99.90;;;;;;5055874;28;39570;-75
2022/03/30 00:35:46;;;;;;;34.43;18.73;;;8.10;99.90;;;;;;5061360;28;38475;-75
2022/03/30 00:38:13;;;;;;;34.97;17.57;;;8.10;99.90;;;;;;5057424;28;39534;-75
2022/03/30 00:40:39;;;;;;;36.13;18.00;;;8.00;99.90;;;;;;5057110;28;38161;-75
2022/03/30 00:43:05;;;;;;;33.60;17.00;;;8.00;99.90;;;;;;5057998;27;38767;-75
2022/03/30 00:45:32;;;;;;;35.47;18.10;;;7.90;99.90;;;;;;5059503;28;39843;-75
2022/03/30 00:47:58;;;;;;;35.40;17.97;;;7.90;99.90;;;;;;5054833;28;39315;-75
2022/03/30 00:50:24;;;;;;;36.47;18.43;;;7.90;99.90;;;;;;5062913;28;38409;-75
2022/03/30 00:52:56;;;;;;;36.77;17.97;;;7.80;99.90;;;;;;5064650;27;39908;-75
2022/03/30 00:55:24;;;;;;;39.05;19.58;;;7.80;99.90;;;;;;5060973;28;37281;-75
2022/03/30 00:57:53;;;;;;;36.67;17.90;;;7.80;99.90;;;;;;5055400;28;39451;-75
2022/03/30 01:00:19;;;;;;;34.33;17.43;;;7.70;99.90;;;;;;5074569;28;37937;-74
2022/03/30 01:02:48;;;;;;;33.60;18.23;;;7.70;99.90;;;;;;5058766;27;39425;-74
2022/03/30 01:05:15;;;;;;;41.17;20.43;;;7.70;99.90;;;;;;5056346;28;38369;-75
2022/03/30 01:07:42;;;;;;;42.80;19.07;;;7.70;99.90;;;;;;5061931;27;37929;-74
2022/03/30 01:10:10;;;;;;;40.77;20.47;;;7.70;99.90;;;;;;5055776;28;37369;-75
2022/03/30 01:12:39;;;;;;;33.60;18.60;;;7.60;99.90;;;;;;5054860;28;39359;-75
2022/03/30 01:15:07;;;;;;;43.67;19.07;;;7.60;99.90;;;;;;5060128;28;38718;-75
2022/03/30 01:17:33;;;;;;;35.63;19.03;;;7.50;99.90;;;;;;5061379;28;39216;-75
2022/03/30 01:20:00;;;;;;;36.47;19.63;;;7.50;99.90;;;;;;5059373;28;39118;-75
2022/03/30 01:22:26;;;;;;;39.20;18.73;;;7.50;99.90;;;;;;5068029;28;40271;-76
2022/03/30 01:24:52;;;;;;;33.37;17.97;;;7.50;99.90;;;;;;5060385;28;38725;-75
2022/03/30 01:27:18;;;;;;;42.03;19.93;;;7.40;99.90;;;;;;5055026;27;38377;-75
2022/03/30 01:32:29;;;;;;;38.53;19.13;;;7.40;99.90;;;;;;5058065;28;49161;-75
2022/03/30 01:34:58;;;;;;;40.10;18.83;;;7.30;99.90;;;;;;5059887;28;39540;-75
2022/03/30 01:37:28;;;;;;;41.37;20.00;;;7.30;99.90;;;;;;5060149;28;39609;-75
2022/03/30 01:39:59;;;;;;;35.70;19.93;;;7.30;99.90;;;;;;5057262;28;37373;-75
2022/03/30 01:42:26;;;;;;;38.80;19.83;;;7.20;99.90;;;;;;5059384;27;40107;-75
2022/03/30 01:44:53;;;;;;;37.47;19.57;;;7.20;99.90;;;;;;5075575;28;37504;-74
2022/03/30 01:47:20;;;;;;;35.20;19.70;;;7.10;99.90;;;;;;5063248;28;39054;-75
2022/03/30 01:49:47;;;;;;;38.73;20.33;;;7.10;99.90;;;;;;5062237;28;37887;-75
2022/03/30 01:52:16;;;;;;;41.50;20.63;;;7.00;99.90;;;;;;5063069;28;38868;-76
2022/03/30 01:54:42;;;;;;;33.03;18.20;;;7.00;99.90;;;;;;5078488;28;37198;-75
2022/03/30 01:57:12;;;;;;;37.07;19.00;;;7.00;99.90;;;;;;5067590;28;38551;-75
2022/03/30 01:59:41;;;;;;;39.80;20.00;;;6.90;99.90;;;;;;5063511;28;37536;-75
2022/03/30 02:02:08;;;;;;;38.40;19.87;;;7.00;99.90;;;;;;5064318;27;39172;-75
2022/03/30 02:04:38;;;;;;;41.83;19.57;;;6.90;99.90;;;;;;5062410;28;39617;-75
2022/03/30 02:07:08;;;;;;;32.57;18.20;;;6.90;99.90;;;;;;5061533;28;38097;-74
2022/03/30 02:09:34;;;;;;;44.00;21.43;;;6.80;99.90;;;;;;5064590;28;37567;-75
2022/03/30 02:12:00;;;;;;;37.73;20.63;;;6.70;99.90;;;;;;5057865;28;40482;-74
2022/03/30 02:14:26;;;;;;;37.33;19.63;;;6.60;99.90;;;;;;5061481;28;39006;-74
2022/03/30 02:16:53;;;;;;;42.97;21.13;;;6.60;99.90;;;;;;5060187;28;38549;-74
2022/03/30 02:19:19;;;;;;;42.93;20.97;;;6.60;99.90;;;;;;5066088;28;38715;-75
2022/03/30 02:21:45;;;;;;;41.60;21.37;;;6.60;99.90;;;;;;5059829;28;38912;-75
2022/03/30 02:24:11;;;;;;;47.77;21.87;;;6.60;99.90;;;;;;5056477;28;38416;-75
2022/03/30 02:26:37;;;;;;;37.83;21.37;;;6.50;99.90;;;;;;5063929;28;39356;-75
2022/03/30 02:29:03;;;;;;;53.33;22.27;;;6.40;99.90;;;;;;5073734;27;37842;-75
2022/03/30 02:31:30;;;;;;;43.70;22.23;;;6.40;99.90;;;;;;5056796;28;39500;-76
2022/03/30 02:33:56;;;;;;;38.57;22.70;;;6.40;99.90;;;;;;5053526;28;38708;-75
2022/03/30 02:36:22;;;;;;;44.47;22.07;;;6.30;99.90;;;;;;5055162;28;36393;-75
2022/03/30 02:38:48;;;;;;;46.93;20.80;;;6.30;99.90;;;;;;5057822;28;38559;-75
2022/03/30 02:41:14;;;;;;;41.47;22.13;;;6.30;99.90;;;;;;5059464;28;38452;-75
2022/03/30 02:43:40;;;;;;;49.23;21.33;;;6.20;99.90;;;;;;5060509;27;39055;-75
2022/03/30 02:46:07;;;;;;;48.50;22.83;;;6.20;99.90;;;;;;5075576;27;38648;-75
2022/03/30 02:48:35;;;;;;;43.80;21.13;;;6.10;99.90;;;;;;5063489;28;39242;-75
2022/03/30 02:51:04;;;;;;;40.00;21.87;;;6.10;99.90;;;;;;5063187;28;39065;-75
2022/03/30 02:53:32;;;;;;;40.43;21.83;;;6.00;99.90;;;;;;5055364;28;48591;-75
2022/03/30 02:55:58;;;;;;;38.77;22.10;;;5.90;99.90;;;;;;5063125;28;37786;-75
2022/03/30 02:58:25;;;;;;;53.00;23.17;;;5.90;99.90;;;;;;5059116;28;36743;-75
2022/03/30 03:00:53;;;;;;;38.67;21.67;;;5.80;99.90;;;;;;5061826;28;38864;-74
2022/03/30 03:03:19;;;;;;;54.70;24.13;;;5.70;99.90;;;;;;5063647;28;38422;-75
2022/03/30 03:05:45;;;;;;;47.67;23.10;;;5.70;99.90;;;;;;5063692;28;38040;-75
2022/03/30 03:08:12;;;;;;;45.33;23.70;;;5.60;99.90;;;;;;5061784;28;38032;-74
2022/03/30 03:10:41;;;;;;;39.60;21.23;;;5.60;99.90;;;;;;5077636;28;39228;-74
2022/03/30 03:13:07;;;;;;;38.27;21.67;;;5.60;99.90;;;;;;5061558;28;38470;-74
2022/03/30 03:15:35;;;;;;;41.67;21.33;;;5.50;99.90;;;;;;5063145;28;39784;-75
2022/03/30 03:18:03;;;;;;;50.57;21.87;;;5.60;99.90;;;;;;5064941;28;38244;-74
2022/03/30 03:20:30;;;;;;;40.57;21.27;;;5.60;99.90;;;;;;5062278;28;39437;-75
2022/03/30 03:22:57;;;;;;;38.90;20.57;;;5.60;99.90;;;;;;5062018;28;39632;-75
2022/03/30 03:25:23;;;;;;;44.17;22.17;;;5.60;99.90;;;;;;5073252;28;38636;-74
2022/03/30 03:27:49;;;;;;;48.13;21.67;;;5.60;99.90;;;;;;5065378;28;37430;-74
2022/03/30 03:30:16;;;;;;;46.23;21.70;;;5.60;99.90;;;;;;5060821;28;39741;-75
2022/03/30 03:32:42;;;;;;;45.03;21.57;;;5.60;99.90;;;;;;5060796;28;39131;-74
2022/03/30 03:35:09;;;;;;;44.83;20.53;;;5.60;99.90;;;;;;5060931;28;38999;-74
2022/03/30 03:37:39;;;;;;;40.37;20.53;;;5.60;99.90;;;;;;5062695;28;37063;-75
2022/03/30 03:40:07;;;;;;;42.10;21.90;;;5.60;99.90;;;;;;5059264;28;39363;-74
2022/03/30 03:42:34;;;;;;;45.07;20.03;;;5.60;99.90;;;;;;5062206;28;40038;-74
2022/03/30 03:45:00;;;;;;;46.90;20.00;;;5.60;99.90;;;;;;5066113;28;38264;-74
2022/03/30 03:47:26;;;;;;;45.87;20.23;;;5.60;99.90;;;;;;5060351;28;37289;-75
2022/03/30 03:49:52;;;;;;;48.73;21.20;;;5.60;99.90;;;;;;5056399;28;37791;-75
2022/03/30 03:52:18;;;;;;;39.23;20.70;;;5.60;99.90;;;;;;5059521;28;38494;-75
2022/03/30 03:54:45;;;;;;;40.20;18.33;;;5.60;99.90;;;;;;5053550;28;38213;-75
2022/03/30 03:57:11;;;;;;;46.83;20.57;;;5.60;99.90;;;;;;5057416;28;36667;-74
2022/03/30 03:59:37;;;;;;;44.97;21.40;;;5.60;99.90;;;;;;5059293;28;38175;-75
2022/03/30 04:02:04;;;;;;;40.00;19.00;;;5.50;99.90;;;;;;5059127;28;38840;-74
2022/03/30 04:04:31;;;;;;;42.10;18.63;;;5.50;99.90;;;;;;5054253;28;39048;-74
2022/03/30 04:06:58;;;;;;;40.93;19.80;;;5.50;99.90;;;;;;5060513;28;37756;-74
2022/03/30 04:09:24;;;;;;;38.77;19.77;;;5.50;99.90;;;;;;5072830;28;38557;-75
2022/03/30 04:11:50;;;;;;;36.93;18.37;;;5.50;99.90;;;;;;5070920;28;39145;-74
2022/03/30 04:14:17;;;;;;;48.40;20.03;;;5.50;99.90;;;;;;5063287;27;38049;-74
2022/03/30 04:16:43;;;;;;;39.37;19.50;;;5.50;99.90;;;;;;5061071;28;37624;-75
2022/03/30 04:19:10;;;;;;;38.07;19.07;;;5.50;99.90;;;;;;5056095;27;38959;-74
2022/03/30 04:21:36;;;;;;;36.00;17.97;;;5.50;99.90;;;;;;5059952;28;38368;-74
2022/03/30 04:24:03;;;;;;;39.37;19.77;;;5.50;99.90;;;;;;5064609;28;36210;-75
2022/03/30 04:26:29;;;;;;;36.30;18.50;;;5.50;99.90;;;;;;5038915;28;37089;-74
2022/03/30 04:28:55;;;;;;;43.60;19.13;;;5.50;99.90;;;;;;5057186;28;38306;-74
2022/03/30 04:31:21;;;;;;;36.77;18.53;;;5.50;99.90;;;;;;5055593;28;38556;-75
2022/03/30 04:33:47;;;;;;;49.60;20.37;;;5.50;99.90;;;;;;5056708;28;38792;-75
2022/03/30 04:36:13;;;;;;;36.40;17.07;;;5.50;99.90;;;;;;5067695;28;36107;-75
2022/03/30 04:38:39;;;;;;;37.53;18.93;;;5.40;99.90;;;;;;5052929;27;39799;-74
2022/03/30 04:41:06;;;;;;;37.87;21.13;;;5.40;99.90;;;;;;5071621;28;38084;-75
2022/03/30 04:43:32;;;;;;;43.37;19.73;;;5.30;99.90;;;;;;5060784;28;38825;-75
2022/03/30 04:45:58;;;;;;;41.23;19.73;;;5.30;99.90;;;;;;5062998;28;37360;-75
2022/03/30 04:48:24;;;;;;;40.70;19.10;;;5.30;99.90;;;;;;5056669;28;37748;-75
2022/03/30 04:50:50;;;;;;;44.93;19.17;;;5.40;99.90;;;;;;5062973;28;38533;-74
2022/03/30 04:53:16;;;;;;;37.70;17.97;;;5.40;99.90;;;;;;5060987;28;38887;-75
2022/03/30 04:55:43;;;;;;;46.77;19.17;;;5.40;99.90;;;;;;5062503;28;37689;-75
2022/03/30 04:58:09;;;;;;;35.67;18.23;;;5.40;99.90;;;;;;5058739;28;38779;-74
2022/03/30 05:00:36;;;;;;;36.50;18.17;;;5.40;99.90;;;;;;5073167;28;37614;-74
2022/03/30 05:03:03;;;;;;;34.83;18.03;;;5.30;99.90;;;;;;5063201;28;38874;-73
2022/03/30 05:05:29;;;;;;;42.30;19.20;;;5.30;99.90;;;;;;5063513;28;38990;-74
2022/03/30 05:07:56;;;;;;;40.77;19.17;;;5.30;99.90;;;;;;5053238;28;39729;-75
2022/03/30 05:10:22;;;;;;;34.67;18.77;;;5.20;99.90;;;;;;5058497;28;38285;-75
2022/03/30 05:12:48;;;;;;;40.43;19.20;;;5.20;99.90;;;;;;5057602;28;37225;-75
2022/03/30 05:15:14;;;;;;;39.67;17.97;;;5.20;99.90;;;;;;5056566;28;37903;-77
2022/03/30 05:17:45;;;;;;;43.13;20.40;;;5.10;99.90;;;;;;5059441;28;38636;-75
2022/03/30 05:20:13;;;;;;;41.60;18.20;;;5.10;99.90;;;;;;5055503;28;38889;-75
2022/03/30 05:22:42;;;;;;;39.83;19.73;;;5.00;99.90;;;;;;5047867;28;39118;-75
2022/03/30 05:25:10;;;;;;;39.67;20.27;;;4.90;99.90;;;;;;5058343;28;36824;-74
2022/03/30 05:27:38;;;;;;;44.73;20.30;;;4.90;99.90;;;;;;5054288;28;37731;-75
2022/03/30 05:30:08;;;;;;;48.00;21.83;;;4.90;99.90;;;;;;5057902;28;36660;-75
2022/03/30 05:32:35;;;;;;;43.63;21.13;;;4.90;99.90;;;;;;5065708;27;37547;-76
2022/03/30 05:35:01;;;;;;;39.50;19.60;;;4.90;99.90;;;;;;5054665;28;38065;-76
2022/03/30 05:37:28;;;;;;;47.03;19.93;;;4.90;99.90;;;;;;5056222;28;47286;-75
2022/03/30 05:39:54;;;;;;;42.23;20.57;;;4.90;99.90;;;;;;5058390;28;39499;-75
2022/03/30 05:42:22;;;;;;;43.80;20.43;;;4.90;99.90;;;;;;5058695;27;39679;-76
2022/03/30 05:44:49;;;;;;;42.27;22.03;;;4.90;99.90;;;;;;5061578;28;37958;-76
2022/03/30 05:47:16;;;;;;;50.00;21.60;;;4.90;99.90;;;;;;5056768;28;39971;-76
2022/03/30 05:49:42;;;;;;;40.87;21.33;;;4.90;99.90;;;;;;5054692;28;39363;-76
2022/03/30 05:52:09;;;;;;;46.73;19.93;;;5.00;99.90;;;;;;5073909;28;38219;-76
2022/03/30 05:54:35;;;;;;;51.30;20.10;;;5.00;99.90;;;;;;5059837;28;38548;-76
2022/03/30 05:57:02;;;;;;;39.03;18.43;;;5.10;99.90;;;;;;5072654;28;37906;-76
2022/03/30 05:59:31;;;;;;;43.93;19.73;;;5.10;99.90;;;;;;5058967;28;48987;-76
2022/03/30 06:01:58;;;;;;;48.60;20.33;;;5.20;99.90;;;;;;5066003;28;37641;-76
2022/03/30 06:04:25;;;;;;;43.37;21.13;;;5.10;99.90;;;;;;5064153;27;38389;-76
2022/03/30 06:06:52;;;;;;;44.80;20.23;;;5.20;99.90;;;;;;5064219;28;40433;-76
2022/03/30 06:09:19;;;;;;;42.03;21.20;;;5.20;99.90;;;;;;5063748;28;39233;-76
2022/03/30 06:11:46;;;;;;;38.30;20.73;;;5.20;99.90;;;;;;5055938;28;35893;-76
2022/03/30 06:14:14;;;;;;;46.87;21.10;;;5.20;99.90;;;;;;5061278;27;38614;-76
2022/03/30 06:16:42;;;;;;;42.50;19.90;;;5.30;99.90;;;;;;5061913;28;37802;-76
2022/03/30 06:19:12;;;;;;;38.73;19.90;;;5.30;99.90;;;;;;5061164;28;38261;-76
2022/03/30 06:21:41;;;;;;;41.10;20.80;;;5.40;99.90;;;;;;5059400;28;38166;-76
2022/03/30 06:24:10;;;;;;;43.87;19.87;;;5.40;99.90;;;;;;5061576;28;38270;-76
2022/03/30 06:26:40;;;;;;;40.30;20.63;;;5.50;99.90;;;;;;5065390;28;38565;-76
2022/03/30 06:29:07;;;;;;;44.67;20.00;;;5.50;99.90;;;;;;5063812;28;39006;-75
2022/03/30 06:31:34;;;;;;;33.97;18.50;;;5.60;99.90;;;;;;5064995;28;39415;-76
2022/03/30 06:34:01;;;;;;;33.77;17.73;;;5.70;99.90;;;;;;5066296;27;38409;-76
2022/03/30 06:36:28;;;;;;;46.17;20.00;;;5.70;99.90;;;;;;5064235;28;47446;-76
2022/03/30 06:38:55;;;;;;;32.90;18.60;;;5.70;99.90;;;;;;5064882;28;40327;-76
2022/03/30 06:41:24;;;;;;;44.73;18.57;;;5.80;99.90;;;;;;5069172;28;38407;-77
2022/03/30 06:43:50;;;;;;;41.07;19.73;;;5.90;99.90;;;;;;5067052;27;38045;-76
2022/03/30 06:46:18;;;;;;;37.13;16.83;;;5.90;99.90;;;;;;5066008;28;39395;-76
2022/03/30 06:48:45;;;;;;;37.97;17.67;;;5.90;99.90;;;;;;5065533;28;39402;-76
2022/03/30 06:51:14;;;;;;;42.90;20.47;;;6.00;99.90;;;;;;5062425;28;39854;-76
2022/03/30 06:53:40;;;;;;;33.00;18.83;;;6.00;99.90;;;;;;5060997;28;38366;-76
2022/03/30 06:56:06;;;;;;;37.40;18.80;;;6.00;99.90;;;;;;5067613;28;39614;-76
2022/03/30 06:58:33;;;;;;;42.57;19.13;;;6.10;99.90;;;;;;5065504;28;38931;-77
2022/03/30 07:00:59;;;;;;;35.03;18.13;;;6.20;99.90;;;;;;5066302;28;38482;-76
2022/03/30 07:03:28;;;;;;;43.07;18.90;;;6.20;99.90;;;;;;5066369;27;37255;-76
2022/03/30 07:05:55;;;;;;;40.03;17.87;;;6.30;99.90;;;;;;5066543;28;39192;-76
2022/03/30 07:11:07;;;;;;;34.97;17.17;;;6.30;99.90;;;;;;5065388;28;39388;-76
2022/03/30 07:13:33;;;;;;;40.67;17.60;;;6.30;99.90;;;;;;5063369;28;38616;-76
2022/03/30 07:15:59;;;;;;;42.73;18.43;;;6.40;99.90;;;;;;5064852;28;38914;-76
2022/03/30 07:18:27;;;;;;;38.10;17.43;;;6.40;99.90;;;;;;5067272;27;39114;-76
2022/03/30 07:20:53;;;;;;;35.63;17.27;;;6.50;99.90;;;;;;5064633;28;38530;-76
2022/03/30 07:23:20;;;;;;;35.03;17.43;;;6.60;99.90;;;;;;5064128;28;38970;-76
2022/03/30 07:25:46;;;;;;;41.00;19.60;;;6.70;99.90;;;;;;5079090;28;37736;-77
2022/03/30 07:28:15;;;;;;;33.60;17.93;;;6.80;99.90;;;;;;5065240;28;38135;-76
2022/03/30 07:30:43;;;;;;;37.37;17.87;;;6.80;99.90;;;;;;5066569;28;38047;-76
2022/03/30 07:33:09;;;;;;;40.60;19.83;;;6.90;99.90;;;;;;5066242;28;38417;-76
2022/03/30 07:35:36;;;;;;;37.87;17.77;;;7.00;99.90;;;;;;5065911;28;38904;-76
2022/03/30 07:38:02;;;;;;;41.83;17.63;;;7.00;99.90;;;;;;5064691;28;37520;-76
2022/03/30 07:40:29;;;;;;;32.97;17.70;;;7.10;99.90;;;;;;5066343;28;38996;-78
2022/03/30 07:42:56;;;;;;;32.40;16.27;;;7.10;99.90;;;;;;5062714;28;37860;-78
2022/03/30 07:45:23;;;;;;;30.63;15.83;;;7.20;99.90;;;;;;5066516;28;39123;-77
2022/03/30 07:47:49;;;;;;;29.23;16.13;;;7.30;99.90;;;;;;5065790;28;38862;-78
2022/03/30 07:50:15;;;;;;;30.23;15.40;;;7.30;99.90;;;;;;5066971;28;38663;-78
2022/03/30 07:52:42;;;;;;;29.47;15.87;;;7.40;99.90;;;;;;5065632;28;37968;-75
2022/03/30 07:55:11;;;;;;;30.77;16.00;;;7.50;99.90;;;;;;5065663;28;39305;-77
2022/03/30 07:57:39;;;;;;;28.43;15.93;;;7.60;99.90;;;;;;5065342;28;38570;-77
2022/03/30 08:00:08;;;;;;;27.93;14.90;;;7.60;99.90;;;;;;5065548;28;38464;-78
2022/03/30 08:02:34;;;;;;;28.50;15.23;;;7.70;99.90;;;;;;5068141;27;36740;-77
2022/03/30 08:05:00;;;;;;;25.00;15.47;;;7.80;99.90;;;;;;5063758;28;39261;-77
2022/03/30 08:07:26;;;;;;;26.80;14.30;;;7.90;99.90;;;;;;5060957;28;47401;-77
2022/03/30 08:09:53;;;;;;;25.27;14.37;;;8.10;99.90;;;;;;5066081;28;40183;-74
2022/03/30 08:12:20;;;;;;;27.77;14.60;;;8.30;99.90;;;;;;5065867;28;37774;-77
2022/03/30 08:14:47;;;;;;;27.90;14.27;;;8.50;99.90;;;;;;5079350;28;39253;-75
2022/03/30 08:17:13;;;;;;;26.93;15.37;;;8.60;99.90;;;;;;5065234;27;37994;-75
2022/03/30 08:19:40;;;;;;;30.23;14.67;;;8.70;99.90;;;;;;5067535;28;39656;-75
2022/03/30 08:24:56;;;;;;;28.83;14.97;;;8.60;99.90;;;;;;5067917;28;39246;-75
2022/03/30 08:27:26;;;;;;;23.23;13.50;;;8.50;99.90;;;;;;5068079;28;39824;-75
2022/03/30 08:29:53;;;;;;;25.53;14.43;;;8.50;99.90;;;;;;5064390;28;38582;-75
2022/03/30 08:32:21;;;;;;;26.03;14.63;;;8.50;99.90;;;;;;5082877;27;36609;-75
2022/03/30 08:34:49;;;;;;;23.20;13.97;;;8.60;99.90;;;;;;5066626;28;40214;-75
2022/03/30 08:37:16;;;;;;;28.83;14.80;;;8.50;99.90;;;;;;5064593;28;40051;-75
2022/03/30 08:39:43;;;;;;;27.83;14.63;;;8.50;99.90;;;;;;5065992;28;36804;-75
2022/03/30 08:42:10;;;;;;;26.50;14.60;;;8.70;99.90;;;;;;5067289;28;36584;-75
2022/03/30 08:44:37;;;;;;;18.77;11.93;;;9.00;99.90;;;;;;5066368;28;40802;-75
2022/03/30 08:47:05;;;;;;;25.03;11.73;;;9.10;99.90;;;;;;5065456;28;39786;-75
2022/03/30 08:49:35;;;;;;;21.73;13.10;;;9.20;99.90;;;;;;5066303;28;36966;-75
2022/03/30 08:52:03;;;;;;;22.87;12.80;;;9.30;99.90;;;;;;5066102;28;36132;-75
2022/03/30 08:54:29;;;;;;;24.73;13.03;;;9.40;99.90;;;;;;5067299;28;40173;-75
2022/03/30 08:56:55;;;;;;;29.10;13.00;;;9.60;99.90;;;;;;5066631;28;37824;-76
2022/03/30 08:59:23;;;;;;;25.57;12.53;;;9.50;99.90;;;;;;5067537;28;38989;-74
2022/03/30 09:01:52;;;;;;;19.33;11.97;;;9.50;99.90;;;;;;5063945;28;38129;-75
2022/03/30 09:04:19;;;;;;;21.43;12.27;;;9.60;99.90;;;;;;5047268;28;37887;-75
2022/03/30 09:06:50;;;;;;;25.55;12.73;;;9.70;99.90;;;;;;5065674;28;38548;-75
2022/03/30 09:09:28;;;;;;;25.30;12.82;;;9.80;99.90;;;;;;5066456;28;38576;-75
2022/03/30 09:11:55;;;;;;;22.48;11.70;;;10.20;99.90;;;;;;5056854;28;38217;-76
2022/03/30 09:14:29;;;;;;;27.35;12.73;;;10.50;99.90;;;;;;5066484;28;37421;-75
2022/03/30 09:16:58;;;;;;;20.17;11.25;;;10.90;99.90;;;;;;5068533;28;39062;-75
2022/03/30 09:19:25;;;;;;;22.98;11.88;;;11.00;99.90;;;;;;5067422;27;38833;-76
2022/03/30 09:21:55;;;;;;;17.27;11.30;;;11.10;99.90;;;;;;5072013;28;38768;-76
2022/03/30 09:24:26;;;;;;;19.95;11.02;;;10.80;99.90;;;;;;5070576;28;38713;-75
2022/03/30 09:26:54;;;;;;;18.23;10.20;;;10.70;99.90;;;;;;5069790;28;39264;-75
2022/03/30 09:29:22;;;;;;;21.08;11.18;;;10.60;99.90;;;;;;5071998;28;37972;-75
2022/03/30 09:31:52;;;;;;;16.85;10.98;;;11.10;99.90;;;;;;5070050;28;37761;-76
2022/03/30 09:34:20;;;;;;;19.00;11.18;;;11.10;99.90;;;;;;5084546;28;37534;-75
2022/03/30 09:36:50;;;;;;;18.92;10.27;;;11.00;99.90;;;;;;5067821;28;37061;-75
2022/03/30 09:39:36;;;;;;;20.25;11.20;;;11.40;99.90;;;;;;5066514;28;38630;-75
2022/03/30 09:42:05;;;;;;;23.95;12.20;;;11.30;99.90;;;;;;5064294;28;37692;-75
2022/03/30 09:44:47;;;;;;;17.92;11.32;;;11.20;99.90;;;;;;5070078;28;39666;-76
2022/03/30 09:47:14;;;;;;;21.25;11.82;;;11.10;99.90;;;;;;5063850;27;37373;-76
2022/03/30 09:49:43;;;;;;;20.33;11.63;;;11.50;99.90;;;;;;5062644;28;38973;-76
2022/03/30 09:52:43;;;;;;;16.63;11.07;;;11.90;99.90;;;;;;5061479;28;36484;-78
2022/03/30 09:55:11;;;;;;;19.13;11.82;;;11.90;99.90;;;;;;5025612;28;38872;-78
2022/03/30 09:57:39;;;;;;;23.20;12.32;;;12.00;99.90;;;;;;5067637;28;39200;-77
2022/03/30 10:00:12;;;;;;;18.55;11.18;;;12.00;99.90;;;;;;5064296;28;38776;-77
2022/03/30 10:02:44;;;;;;;17.38;11.18;;;11.90;99.90;;;;;;5064160;28;37234;-78
2022/03/30 10:05:12;;;;;;;23.00;12.43;;;11.90;99.90;;;;;;5067002;28;39734;-78
2022/03/30 10:07:39;;;;;;;21.35;11.48;;;12.20;99.90;;;;;;5069961;28;39781;-78
2022/03/30 10:10:08;;;;;;;21.15;11.88;;;12.30;99.90;;;;;;5068056;28;38081;-78
2022/03/30 10:12:35;;;;;;;19.83;12.07;;;11.80;99.90;;;;;;5052188;28;36351;-78
2022/03/30 10:15:02;;;;;;;16.02;11.02;;;11.70;99.90;;;;;;5069370;28;38786;-78
2022/03/30 10:17:29;;;;;;;15.20;10.88;;;11.70;99.90;;;;;;5066314;28;46799;-78
2022/03/30 10:19:58;;;;;;;16.75;10.65;;;11.90;99.90;;;;;;5067237;28;37231;-78
2022/03/30 10:22:43;;;;;;;21.00;11.73;;;11.90;99.90;;;;;;5067053;28;38229;-76
2022/03/30 10:25:50;;;;;;;20.65;11.70;;;11.80;99.90;;;;;;5080570;28;37855;-78
2022/03/30 10:28:24;;;;;;;20.58;11.35;;;11.80;99.90;;;;;;5064923;28;37379;-78
2022/03/30 10:30:55;;;;;;;21.60;12.65;;;12.10;99.90;;;;;;5069417;28;37858;-78
2022/03/30 10:33:32;;;;;;;18.30;11.57;;;12.00;99.90;;;;;;5069769;28;36929;-78
2022/03/30 10:36:19;;;;;;;17.40;11.32;;;12.20;99.90;;;;;;5066861;27;38764;-79
2022/03/30 10:39:16;;;;;;;19.20;11.35;;;12.40;99.90;;;;;;5065557;28;47054;-79
2022/03/30 10:42:03;;;;;;;20.77;12.43;;;12.70;99.90;;;;;;5061980;28;47011;-78
2022/03/30 10:44:35;;;;;;;17.25;11.43;;;12.50;99.90;;;;;;5069250;28;48706;-77
2022/03/30 10:47:12;;;;;;;20.98;11.50;;;12.50;99.90;;;;;;5051858;28;39724;-78
2022/03/30 10:49:40;;;;;;;18.17;10.60;;;12.20;99.90;;;;;;5072025;28;48941;-77
2022/03/30 10:52:32;;;;;;;18.27;11.52;;;12.10;99.90;;;;;;5069424;28;36968;-77
2022/03/30 10:55:13;;;;;;;20.27;12.65;;;12.40;99.90;;;;;;5067204;28;39144;-78
2022/03/30 10:57:50;;;;;;;21.02;12.48;;;12.50;99.90;;;;;;5068299;28;48463;-78
2022/03/30 11:00:18;;;;;;;21.40;13.10;;;12.50;99.90;;;;;;5065027;28;38714;-78
2022/03/30 11:02:45;;;;;;;16.50;11.13;;;12.50;99.90;;;;;;5067832;28;38188;-78
2022/03/30 11:05:13;;;;;;;18.20;11.75;;;12.70;99.90;;;;;;5067442;28;37244;-78
2022/03/30 11:07:39;;;;;;;18.77;11.52;;;13.00;99.90;;;;;;5069430;28;38626;-78
2022/03/30 11:10:29;;;;;;;18.77;11.63;;;12.90;99.90;;;;;;5063435;28;38614;-77
2022/03/30 11:13:04;;;;;;;16.58;11.05;;;12.90;99.90;;;;;;5065589;28;39005;-78
2022/03/30 11:15:51;;;;;;;18.98;10.75;;;13.10;99.90;;;;;;5067314;28;48908;-78
2022/03/30 11:18:20;;;;;;;17.73;10.75;;;13.10;99.90;;;;;;5065085;27;38877;-78
2022/03/30 11:21:08;;;;;;;20.33;11.38;;;13.10;99.90;;;;;;5061608;28;40169;-78
2022/03/30 11:23:52;;;;;;;17.73;10.45;;;13.10;99.90;;;;;;5061555;28;46879;-77
2022/03/30 11:26:18;;;;;;;19.25;11.55;;;13.20;99.90;;;;;;5066972;28;37197;-78
2022/03/30 11:28:45;;;;;;;14.98;9.80;;;13.10;99.90;;;;;;5068035;27;39931;-78
2022/03/30 11:31:19;;;;;;;15.43;10.70;;;13.10;99.90;;;;;;5049559;28;39050;-78
2022/03/30 11:34:41;;;;;;;20.63;10.60;;;13.30;99.90;;;;;;5064568;28;39329;-78
2022/03/30 11:37:08;;;;;;;20.25;10.48;;;13.40;99.90;;;;;;5024619;28;48973;-77
2022/03/30 11:39:35;;;;;;;15.75;10.30;;;13.40;99.90;;;;;;5055718;28;38651;-78
2022/03/30 11:42:01;;;;;;;19.83;10.50;;;12.90;99.90;;;;;;5069217;27;38365;-78
2022/03/30 11:45:12;;;;;;;18.85;9.43;;;12.50;99.90;;;;;;5068955;28;47582;-78
2022/03/30 11:47:19;;;;;;;18.48;10.68;;;12.80;99.90;;;;;;5057670;28;37802;-78
2022/03/30 11:49:50;;;;;;;16.65;10.45;;;13.00;99.90;;;;;;5068019;28;38582;-78
2022/03/30 11:52:17;;;;;;;17.30;11.45;;;13.40;99.90;;;;;;5066058;28;40277;-78
2022/03/30 11:54:50;;;;;;;14.05;9.68;;;13.90;99.90;;;;;;5064995;28;38470;-76
2022/03/30 11:57:17;;;;;;;12.93;10.20;;;14.20;99.90;;;;;;5066724;28;38131;-75
2022/03/30 11:59:56;;;;;;;17.92;10.07;;;14.10;99.90;;;;;;5066078;28;38130;-76
2022/03/30 12:02:24;;;;;;;17.33;9.90;;;14.20;99.90;;;;;;5065762;28;38275;-77
2022/03/30 12:04:51;;;;;;;18.25;9.88;;;14.40;99.90;;;;;;5064681;28;39683;-76
2022/03/30 12:07:21;;;;;;;17.52;10.30;;;14.90;99.90;;;;;;5062676;28;37129;-76
2022/03/30 12:09:49;;;;;;;14.35;10.13;;;14.60;99.90;;;;;;5064263;28;39609;-78
2022/03/30 12:12:36;;;;;;;12.38;8.52;;;14.40;99.90;;;;;;5065511;27;38514;-76
2022/03/30 12:15:08;;;;;;;18.75;10.27;;;13.80;99.90;;;;;;5056218;28;38651;-76
2022/03/30 12:17:36;;;;;;;12.50;9.65;;;14.50;99.90;;;;;;5081601;28;47094;-75
2022/03/30 12:20:22;;;;;;;14.85;9.10;;;14.90;99.90;;;;;;5064427;28;37851;-76
2022/03/30 12:22:58;;;;;;;18.58;10.57;;;15.20;99.90;;;;;;5062666;28;49053;-76
2022/03/30 12:25:29;;;;;;;15.70;9.77;;;14.90;99.90;;;;;;5061226;28;39672;-76
2022/03/30 12:27:56;;;;;;;15.57;9.80;;;14.90;99.90;;;;;;5064654;28;38042;-76
2022/03/30 12:30:23;;;;;;;16.45;10.07;;;14.80;99.90;;;;;;5065286;28;40133;-76
2022/03/30 12:32:49;;;;;;;18.23;9.77;;;14.70;99.90;;;;;;5063432;28;38692;-76
2022/03/30 12:35:17;;;;;;;16.75;9.65;;;14.30;99.90;;;;;;5066286;28;38471;-76
2022/03/30 12:37:46;;;;;;;17.80;9.95;;;14.10;99.90;;;;;;5048879;28;36144;-77
2022/03/30 12:40:20;;;;;;;15.00;9.98;;;14.30;99.90;;;;;;5062951;27;39742;-76
2022/03/30 12:42:48;;;;;;;15.48;9.55;;;14.50;99.90;;;;;;5046437;28;38918;-76
2022/03/30 12:45:17;;;;;;;16.70;9.27;;;15.00;99.90;;;;;;5064799;28;39095;-75
2022/03/30 12:47:50;;;;;;;16.95;9.82;;;14.90;99.90;;;;;;5062698;28;37124;-76
2022/03/30 12:50:23;;;;;;;16.42;9.48;;;14.80;99.90;;;;;;5061829;28;40775;-75
2022/03/30 12:52:51;;;;;;;15.38;9.00;;;15.10;99.90;;;;;;5066295;28;39157;-76